sensor_id;sensor_type;location;lat;lon;timestamp;P1;durP1;ratioP1;P2;durP2;ratioP2
39454;SDS011;25155;41.890;23.446;2023-11-22T00:01:53;29.27;;;19.95;;
39454;SDS011;25155;41.890;23.446;2023-11-22T00:04:21;28.65;;;20.45;;
39454;SDS011;25155;41.890;23.446;2023-11-22T00:06:48;25.88;;;17.38;;
39454;SDS011;25155;41.890;23.446;2023-11-22T00:09:15;18.00;;;13.60;;
39454;SDS011;25155;41.890;23.446;2023-11-22T00:11:49;17.40;;;12.43;;
39454;SDS011;25155;41.890;23.446;2023-11-22T00:14:16;20.00;;;14.82;;
39454;SDS011;25155;41.890;23.446;2023-11-22T00:16:43;17.70;;;12.25;;
39454;SDS011;25155;41.890;23.446;2023-11-22T00:19:10;17.88;;;11.75;;
39454;SDS011;25155;41.890;23.446;2023-11-22T00:21:37;14.48;;;9.80;;
39454;SDS011;25155;41.890;23.446;2023-11-22T00:24:04;13.88;;;9.75;;
39454;SDS011;25155;41.890;23.446;2023-11-22T00:26:32;13.88;;;9.55;;
39454;SDS011;25155;41.890;23.446;2023-11-22T00:29:01;13.20;;;9.38;;
39454;SDS011;25155;41.890;23.446;2023-11-22T00:31:28;18.08;;;12.85;;
39454;SDS011;25155;41.890;23.446;2023-11-22T00:33:55;18.63;;;13.00;;
39454;SDS011;25155;41.890;23.446;2023-11-22T00:36:22;16.98;;;11.98;;
39454;SDS011;25155;41.890;23.446;2023-11-22T00:38:49;19.63;;;13.52;;
39454;SDS011;25155;41.890;23.446;2023-11-22T00:41:16;20.23;;;14.23;;
39454;SDS011;25155;41.890;23.446;2023-11-22T00:43:44;19.20;;;13.00;;
39454;SDS011;25155;41.890;23.446;2023-11-22T00:46:12;25.42;;;18.58;;
39454;SDS011;25155;41.890;23.446;2023-11-22T00:48:40;23.23;;;17.15;;
39454;SDS011;25155;41.890;23.446;2023-11-22T00:51:07;23.13;;;15.15;;
39454;SDS011;25155;41.890;23.446;2023-11-22T00:53:36;16.45;;;12.27;;
39454;SDS011;25155;41.890;23.446;2023-11-22T00:56:03;15.55;;;11.48;;
39454;SDS011;25155;41.890;23.446;2023-11-22T00:58:32;15.25;;;10.63;;
39454;SDS011;25155;41.890;23.446;2023-11-22T01:00:59;12.73;;;8.75;;
39454;SDS011;25155;41.890;23.446;2023-11-22T01:03:28;11.50;;;8.23;;
39454;SDS011;25155;41.890;23.446;2023-11-22T01:05:55;12.90;;;8.95;;
39454;SDS011;25155;41.890;23.446;2023-11-22T01:08:23;15.32;;;10.38;;
39454;SDS011;25155;41.890;23.446;2023-11-22T01:10:50;14.95;;;10.10;;
39454;SDS011;25155;41.890;23.446;2023-11-22T01:13:17;18.05;;;12.88;;
39454;SDS011;25155;41.890;23.446;2023-11-22T01:15:44;19.33;;;13.70;;
39454;SDS011;25155;41.890;23.446;2023-11-22T01:18:12;15.52;;;11.77;;
39454;SDS011;25155;41.890;23.446;2023-11-22T01:20:40;19.33;;;13.85;;
39454;SDS011;25155;41.890;23.446;2023-11-22T01:23:08;27.77;;;19.73;;
39454;SDS011;25155;41.890;23.446;2023-11-22T01:25:35;23.92;;;18.65;;
39454;SDS011;25155;41.890;23.446;2023-11-22T01:28:02;24.15;;;17.88;;
39454;SDS011;25155;41.890;23.446;2023-11-22T01:30:29;24.58;;;17.80;;
39454;SDS011;25155;41.890;23.446;2023-11-22T01:32:57;21.80;;;15.18;;
39454;SDS011;25155;41.890;23.446;2023-11-22T01:35:24;18.23;;;13.30;;
39454;SDS011;25155;41.890;23.446;2023-11-22T01:37:53;18.67;;;12.93;;
39454;SDS011;25155;41.890;23.446;2023-11-22T01:40:21;18.65;;;13.63;;
39454;SDS011;25155;41.890;23.446;2023-11-22T01:42:51;21.42;;;14.35;;
39454;SDS011;25155;41.890;23.446;2023-11-22T01:45:19;16.17;;;11.40;;
39454;SDS011;25155;41.890;23.446;2023-11-22T01:47:48;13.13;;;9.55;;
39454;SDS011;25155;41.890;23.446;2023-11-22T01:50:16;10.73;;;7.75;;
39454;SDS011;25155;41.890;23.446;2023-11-22T01:52:44;13.10;;;9.18;;
39454;SDS011;25155;41.890;23.446;2023-11-22T01:55:13;17.15;;;11.98;;
39454;SDS011;25155;41.890;23.446;2023-11-22T01:57:42;12.50;;;9.48;;
39454;SDS011;25155;41.890;23.446;2023-11-22T02:00:10;12.38;;;9.45;;
39454;SDS011;25155;41.890;23.446;2023-11-22T02:02:40;11.52;;;8.50;;
39454;SDS011;25155;41.890;23.446;2023-11-22T02:05:07;12.77;;;8.25;;
39454;SDS011;25155;41.890;23.446;2023-11-22T02:07:37;12.00;;;7.93;;
39454;SDS011;25155;41.890;23.446;2023-11-22T02:10:06;10.77;;;7.45;;
39454;SDS011;25155;41.890;23.446;2023-11-22T02:12:36;16.67;;;11.38;;
39454;SDS011;25155;41.890;23.446;2023-11-22T02:15:05;11.50;;;8.70;;
39454;SDS011;25155;41.890;23.446;2023-11-22T02:17:33;11.00;;;7.57;;
39454;SDS011;25155;41.890;23.446;2023-11-22T02:20:02;9.02;;;6.70;;
39454;SDS011;25155;41.890;23.446;2023-11-22T02:22:34;9.30;;;6.40;;
39454;SDS011;25155;41.890;23.446;2023-11-22T02:25:11;10.10;;;7.38;;
39454;SDS011;25155;41.890;23.446;2023-11-22T02:27:40;8.75;;;6.50;;
39454;SDS011;25155;41.890;23.446;2023-11-22T02:30:08;9.98;;;7.18;;
39454;SDS011;25155;41.890;23.446;2023-11-22T02:32:37;9.82;;;6.97;;
39454;SDS011;25155;41.890;23.446;2023-11-22T02:35:05;9.85;;;6.78;;
39454;SDS011;25155;41.890;23.446;2023-11-22T02:37:33;13.48;;;10.20;;
39454;SDS011;25155;41.890;23.446;2023-11-22T02:40:02;14.50;;;9.95;;
39454;SDS011;25155;41.890;23.446;2023-11-22T02:42:35;11.50;;;8.82;;
39454;SDS011;25155;41.890;23.446;2023-11-22T02:45:02;10.75;;;7.60;;
39454;SDS011;25155;41.890;23.446;2023-11-22T02:47:30;9.82;;;6.82;;
39454;SDS011;25155;41.890;23.446;2023-11-22T02:50:00;10.10;;;7.20;;
39454;SDS011;25155;41.890;23.446;2023-11-22T02:52:30;22.58;;;13.07;;
39454;SDS011;25155;41.890;23.446;2023-11-22T02:54:57;39.97;;;25.35;;
39454;SDS011;25155;41.890;23.446;2023-11-22T02:57:25;45.58;;;30.45;;
39454;SDS011;25155;41.890;23.446;2023-11-22T02:59:54;55.22;;;35.38;;
39454;SDS011;25155;41.890;23.446;2023-11-22T03:02:21;38.33;;;26.10;;
39454;SDS011;25155;41.890;23.446;2023-11-22T03:04:49;30.48;;;20.25;;
39454;SDS011;25155;41.890;23.446;2023-11-22T03:07:16;21.20;;;14.70;;
39454;SDS011;25155;41.890;23.446;2023-11-22T03:09:44;18.38;;;13.80;;
39454;SDS011;25155;41.890;23.446;2023-11-22T03:12:11;17.48;;;13.57;;
39454;SDS011;25155;41.890;23.446;2023-11-22T03:14:39;16.60;;;12.93;;
39454;SDS011;25155;41.890;23.446;2023-11-22T03:17:07;17.58;;;12.95;;
39454;SDS011;25155;41.890;23.446;2023-11-22T03:19:34;15.48;;;11.68;;
39454;SDS011;25155;41.890;23.446;2023-11-22T03:22:01;16.60;;;11.75;;
39454;SDS011;25155;41.890;23.446;2023-11-22T03:24:29;17.70;;;14.18;;
39454;SDS011;25155;41.890;23.446;2023-11-22T03:26:57;23.25;;;17.70;;
39454;SDS011;25155;41.890;23.446;2023-11-22T03:29:25;20.63;;;15.40;;
39454;SDS011;25155;41.890;23.446;2023-11-22T03:31:53;21.08;;;15.07;;
39454;SDS011;25155;41.890;23.446;2023-11-22T03:34:22;16.85;;;12.82;;
39454;SDS011;25155;41.890;23.446;2023-11-22T03:36:49;18.90;;;14.18;;
39454;SDS011;25155;41.890;23.446;2023-11-22T03:39:17;16.73;;;13.25;;
39454;SDS011;25155;41.890;23.446;2023-11-22T03:41:45;15.80;;;12.30;;
39454;SDS011;25155;41.890;23.446;2023-11-22T03:44:12;16.52;;;12.40;;
39454;SDS011;25155;41.890;23.446;2023-11-22T03:46:39;13.93;;;10.30;;
39454;SDS011;25155;41.890;23.446;2023-11-22T03:49:06;13.05;;;9.85;;
39454;SDS011;25155;41.890;23.446;2023-11-22T03:51:35;15.43;;;11.98;;
39454;SDS011;25155;41.890;23.446;2023-11-22T03:54:03;17.30;;;11.75;;
39454;SDS011;25155;41.890;23.446;2023-11-22T03:56:31;16.52;;;12.10;;
39454;SDS011;25155;41.890;23.446;2023-11-22T03:58:59;18.85;;;13.55;;
39454;SDS011;25155;41.890;23.446;2023-11-22T04:01:26;23.17;;;15.27;;
39454;SDS011;25155;41.890;23.446;2023-11-22T04:03:53;25.17;;;17.35;;
39454;SDS011;25155;41.890;23.446;2023-11-22T04:06:20;31.92;;;21.30;;
39454;SDS011;25155;41.890;23.446;2023-11-22T04:08:49;30.30;;;20.65;;
39454;SDS011;25155;41.890;23.446;2023-11-22T04:11:18;34.85;;;24.60;;
39454;SDS011;25155;41.890;23.446;2023-11-22T04:13:47;37.22;;;25.85;;
39454;SDS011;25155;41.890;23.446;2023-11-22T04:16:14;35.85;;;25.00;;
39454;SDS011;25155;41.890;23.446;2023-11-22T04:18:42;30.25;;;21.15;;
39454;SDS011;25155;41.890;23.446;2023-11-22T04:21:10;29.50;;;20.23;;
39454;SDS011;25155;41.890;23.446;2023-11-22T04:23:37;46.80;;;29.90;;
39454;SDS011;25155;41.890;23.446;2023-11-22T04:26:06;45.15;;;27.80;;
39454;SDS011;25155;41.890;23.446;2023-11-22T04:28:33;130.20;;;66.95;;
39454;SDS011;25155;41.890;23.446;2023-11-22T04:31:00;114.05;;;56.50;;
39454;SDS011;25155;41.890;23.446;2023-11-22T04:33:27;88.15;;;46.80;;
39454;SDS011;25155;41.890;23.446;2023-11-22T04:35:54;73.03;;;40.58;;
39454;SDS011;25155;41.890;23.446;2023-11-22T04:38:22;56.42;;;31.85;;
39454;SDS011;25155;41.890;23.446;2023-11-22T04:40:50;47.38;;;27.50;;
39454;SDS011;25155;41.890;23.446;2023-11-22T04:43:19;54.22;;;32.53;;
39454;SDS011;25155;41.890;23.446;2023-11-22T04:45:46;53.58;;;32.15;;
39454;SDS011;25155;41.890;23.446;2023-11-22T04:48:13;41.22;;;27.15;;
39454;SDS011;25155;41.890;23.446;2023-11-22T04:50:40;46.42;;;29.65;;
39454;SDS011;25155;41.890;23.446;2023-11-22T04:53:08;46.17;;;30.50;;
39454;SDS011;25155;41.890;23.446;2023-11-22T04:55:37;56.58;;;39.40;;
39454;SDS011;25155;41.890;23.446;2023-11-22T04:58:04;42.67;;;32.97;;
39454;SDS011;25155;41.890;23.446;2023-11-22T05:00:32;36.55;;;26.92;;
39454;SDS011;25155;41.890;23.446;2023-11-22T05:02:59;27.33;;;20.20;;
39454;SDS011;25155;41.890;23.446;2023-11-22T05:05:26;25.45;;;19.02;;
39454;SDS011;25155;41.890;23.446;2023-11-22T05:07:54;27.02;;;20.35;;
39454;SDS011;25155;41.890;23.446;2023-11-22T05:10:21;39.88;;;29.45;;
39454;SDS011;25155;41.890;23.446;2023-11-22T05:12:48;36.60;;;27.88;;
39454;SDS011;25155;41.890;23.446;2023-11-22T05:15:15;36.35;;;26.73;;
39454;SDS011;25155;41.890;23.446;2023-11-22T05:17:43;32.45;;;24.05;;
39454;SDS011;25155;41.890;23.446;2023-11-22T05:20:10;59.92;;;41.00;;
39454;SDS011;25155;41.890;23.446;2023-11-22T05:22:38;61.20;;;43.30;;
39454;SDS011;25155;41.890;23.446;2023-11-22T05:25:05;50.60;;;34.85;;
39454;SDS011;25155;41.890;23.446;2023-11-22T05:27:33;60.60;;;42.05;;
39454;SDS011;25155;41.890;23.446;2023-11-22T05:30:00;56.50;;;39.15;;
39454;SDS011;25155;41.890;23.446;2023-11-22T05:32:27;46.15;;;31.95;;
39454;SDS011;25155;41.890;23.446;2023-11-22T05:34:58;37.03;;;27.05;;
39454;SDS011;25155;41.890;23.446;2023-11-22T05:37:25;37.60;;;24.85;;
39454;SDS011;25155;41.890;23.446;2023-11-22T05:39:52;32.92;;;25.25;;
39454;SDS011;25155;41.890;23.446;2023-11-22T05:42:19;29.48;;;22.08;;
39454;SDS011;25155;41.890;23.446;2023-11-22T05:44:46;27.05;;;19.65;;
39454;SDS011;25155;41.890;23.446;2023-11-22T05:47:15;34.20;;;25.70;;
39454;SDS011;25155;41.890;23.446;2023-11-22T05:49:44;25.73;;;20.02;;
39454;SDS011;25155;41.890;23.446;2023-11-22T05:52:12;25.85;;;20.42;;
39454;SDS011;25155;41.890;23.446;2023-11-22T05:54:39;24.60;;;18.77;;
39454;SDS011;25155;41.890;23.446;2023-11-22T05:57:06;35.03;;;25.65;;
39454;SDS011;25155;41.890;23.446;2023-11-22T05:59:35;31.55;;;23.05;;
39454;SDS011;25155;41.890;23.446;2023-11-22T06:02:03;28.80;;;21.98;;
39454;SDS011;25155;41.890;23.446;2023-11-22T06:04:30;26.80;;;19.05;;
39454;SDS011;25155;41.890;23.446;2023-11-22T06:06:57;23.38;;;17.50;;
39454;SDS011;25155;41.890;23.446;2023-11-22T06:09:26;23.92;;;18.13;;
39454;SDS011;25155;41.890;23.446;2023-11-22T06:11:53;21.15;;;16.42;;
39454;SDS011;25155;41.890;23.446;2023-11-22T06:14:20;19.27;;;14.23;;
39454;SDS011;25155;41.890;23.446;2023-11-22T06:16:47;21.17;;;15.18;;
39454;SDS011;25155;41.890;23.446;2023-11-22T06:19:15;22.10;;;16.67;;
39454;SDS011;25155;41.890;23.446;2023-11-22T06:21:42;19.80;;;15.00;;
39454;SDS011;25155;41.890;23.446;2023-11-22T06:24:09;29.60;;;23.15;;
39454;SDS011;25155;41.890;23.446;2023-11-22T06:29:11;24.75;;;19.33;;
39454;SDS011;25155;41.890;23.446;2023-11-22T06:31:38;22.95;;;17.85;;
39454;SDS011;25155;41.890;23.446;2023-11-22T06:34:06;20.52;;;16.33;;
39454;SDS011;25155;41.890;23.446;2023-11-22T06:36:33;21.58;;;16.83;;
39454;SDS011;25155;41.890;23.446;2023-11-22T06:39:01;18.63;;;14.57;;
39454;SDS011;25155;41.890;23.446;2023-11-22T06:41:29;18.65;;;14.85;;
39454;SDS011;25155;41.890;23.446;2023-11-22T06:43:58;18.45;;;13.18;;
39454;SDS011;25155;41.890;23.446;2023-11-22T06:46:25;16.58;;;12.82;;
39454;SDS011;25155;41.890;23.446;2023-11-22T06:48:52;21.88;;;16.70;;
39454;SDS011;25155;41.890;23.446;2023-11-22T06:51:21;28.20;;;22.08;;
39454;SDS011;25155;41.890;23.446;2023-11-22T06:53:49;27.25;;;22.48;;
39454;SDS011;25155;41.890;23.446;2023-11-22T06:56:17;30.67;;;24.50;;
39454;SDS011;25155;41.890;23.446;2023-11-22T06:58:44;33.42;;;26.73;;
39454;SDS011;25155;41.890;23.446;2023-11-22T07:01:14;33.17;;;27.40;;
39454;SDS011;25155;41.890;23.446;2023-11-22T07:03:41;29.67;;;24.50;;
39454;SDS011;25155;41.890;23.446;2023-11-22T07:06:08;28.80;;;22.73;;
39454;SDS011;25155;41.890;23.446;2023-11-22T07:08:35;25.67;;;21.52;;
39454;SDS011;25155;41.890;23.446;2023-11-22T07:11:04;25.67;;;21.20;;
39454;SDS011;25155;41.890;23.446;2023-11-22T07:13:35;28.85;;;23.10;;
39454;SDS011;25155;41.890;23.446;2023-11-22T07:16:04;26.17;;;20.92;;
39454;SDS011;25155;41.890;23.446;2023-11-22T07:18:33;22.40;;;17.88;;
39454;SDS011;25155;41.890;23.446;2023-11-22T07:21:02;20.25;;;15.63;;
39454;SDS011;25155;41.890;23.446;2023-11-22T07:23:31;15.95;;;13.60;;
39454;SDS011;25155;41.890;23.446;2023-11-22T07:25:58;15.30;;;12.93;;
39454;SDS011;25155;41.890;23.446;2023-11-22T07:28:25;19.23;;;15.48;;
39454;SDS011;25155;41.890;23.446;2023-11-22T07:30:53;18.58;;;16.05;;
39454;SDS011;25155;41.890;23.446;2023-11-22T07:33:21;18.40;;;15.45;;
39454;SDS011;25155;41.890;23.446;2023-11-22T07:35:52;19.30;;;15.93;;
39454;SDS011;25155;41.890;23.446;2023-11-22T07:38:20;18.10;;;14.27;;
39454;SDS011;25155;41.890;23.446;2023-11-22T07:40:47;19.15;;;15.35;;
39454;SDS011;25155;41.890;23.446;2023-11-22T07:43:16;23.60;;;19.20;;
39454;SDS011;25155;41.890;23.446;2023-11-22T07:45:44;24.35;;;19.42;;
39454;SDS011;25155;41.890;23.446;2023-11-22T07:48:12;25.45;;;20.83;;
39454;SDS011;25155;41.890;23.446;2023-11-22T07:50:39;22.67;;;18.17;;
39454;SDS011;25155;41.890;23.446;2023-11-22T07:53:10;21.85;;;17.75;;
39454;SDS011;25155;41.890;23.446;2023-11-22T07:55:38;20.33;;;16.50;;
39454;SDS011;25155;41.890;23.446;2023-11-22T07:58:07;22.00;;;16.65;;
39454;SDS011;25155;41.890;23.446;2023-11-22T08:00:36;27.08;;;21.13;;
39454;SDS011;25155;41.890;23.446;2023-11-22T08:03:03;53.45;;;43.45;;
39454;SDS011;25155;41.890;23.446;2023-11-22T08:05:32;98.10;;;72.13;;
39454;SDS011;25155;41.890;23.446;2023-11-22T08:08:01;97.85;;;75.45;;
39454;SDS011;25155;41.890;23.446;2023-11-22T08:10:33;107.78;;;80.70;;
39454;SDS011;25155;41.890;23.446;2023-11-22T08:13:00;73.35;;;56.97;;
39454;SDS011;25155;41.890;23.446;2023-11-22T08:15:28;96.72;;;72.25;;
39454;SDS011;25155;41.890;23.446;2023-11-22T08:17:57;66.13;;;51.00;;
39454;SDS011;25155;41.890;23.446;2023-11-22T08:20:25;51.35;;;40.03;;
39454;SDS011;25155;41.890;23.446;2023-11-22T08:22:52;51.65;;;41.83;;
39454;SDS011;25155;41.890;23.446;2023-11-22T08:25:19;88.20;;;67.20;;
39454;SDS011;25155;41.890;23.446;2023-11-22T08:27:48;92.22;;;70.43;;
39454;SDS011;25155;41.890;23.446;2023-11-22T08:30:16;98.95;;;77.18;;
39454;SDS011;25155;41.890;23.446;2023-11-22T08:32:43;79.85;;;61.47;;
39454;SDS011;25155;41.890;23.446;2023-11-22T08:35:13;84.10;;;68.03;;
39454;SDS011;25155;41.890;23.446;2023-11-22T08:37:41;76.07;;;59.70;;
39454;SDS011;25155;41.890;23.446;2023-11-22T08:40:09;71.03;;;57.42;;
39454;SDS011;25155;41.890;23.446;2023-11-22T08:42:39;66.90;;;53.28;;
39454;SDS011;25155;41.890;23.446;2023-11-22T08:45:09;54.28;;;43.70;;
39454;SDS011;25155;41.890;23.446;2023-11-22T08:47:37;59.85;;;45.88;;
39454;SDS011;25155;41.890;23.446;2023-11-22T08:50:08;45.55;;;36.28;;
39454;SDS011;25155;41.890;23.446;2023-11-22T08:52:36;35.50;;;28.92;;
39454;SDS011;25155;41.890;23.446;2023-11-22T08:55:04;36.70;;;30.20;;
39454;SDS011;25155;41.890;23.446;2023-11-22T08:57:32;36.28;;;29.23;;
39454;SDS011;25155;41.890;23.446;2023-11-22T09:00:01;32.05;;;25.55;;
39454;SDS011;25155;41.890;23.446;2023-11-22T09:02:35;32.85;;;27.35;;
39454;SDS011;25155;41.890;23.446;2023-11-22T09:05:02;36.20;;;30.27;;
39454;SDS011;25155;41.890;23.446;2023-11-22T09:07:32;40.78;;;32.47;;
39454;SDS011;25155;41.890;23.446;2023-11-22T09:10:00;38.85;;;30.10;;
39454;SDS011;25155;41.890;23.446;2023-11-22T09:12:34;39.55;;;31.60;;
39454;SDS011;25155;41.890;23.446;2023-11-22T09:15:05;42.92;;;34.95;;
39454;SDS011;25155;41.890;23.446;2023-11-22T09:17:37;37.03;;;29.73;;
39454;SDS011;25155;41.890;23.446;2023-11-22T09:20:08;42.40;;;35.70;;
39454;SDS011;25155;41.890;23.446;2023-11-22T09:22:41;54.33;;;44.00;;
39454;SDS011;25155;41.890;23.446;2023-11-22T09:25:13;52.90;;;41.55;;
39454;SDS011;25155;41.890;23.446;2023-11-22T09:27:42;53.30;;;42.85;;
39454;SDS011;25155;41.890;23.446;2023-11-22T09:30:12;52.80;;;41.58;;
39454;SDS011;25155;41.890;23.446;2023-11-22T09:32:46;43.85;;;37.13;;
39454;SDS011;25155;41.890;23.446;2023-11-22T09:35:14;54.58;;;44.63;;
39454;SDS011;25155;41.890;23.446;2023-11-22T09:37:42;50.13;;;41.00;;
39454;SDS011;25155;41.890;23.446;2023-11-22T09:40:10;39.50;;;32.92;;
39454;SDS011;25155;41.890;23.446;2023-11-22T09:42:43;46.28;;;39.03;;
39454;SDS011;25155;41.890;23.446;2023-11-22T09:45:16;41.80;;;33.75;;
39454;SDS011;25155;41.890;23.446;2023-11-22T09:47:43;34.00;;;28.75;;
39454;SDS011;25155;41.890;23.446;2023-11-22T09:50:13;28.70;;;24.10;;
39454;SDS011;25155;41.890;23.446;2023-11-22T09:52:47;34.28;;;28.40;;
39454;SDS011;25155;41.890;23.446;2023-11-22T09:55:20;32.42;;;26.63;;
39454;SDS011;25155;41.890;23.446;2023-11-22T09:57:52;33.15;;;27.60;;
39454;SDS011;25155;41.890;23.446;2023-11-22T10:00:20;31.77;;;26.15;;
39454;SDS011;25155;41.890;23.446;2023-11-22T10:02:52;40.22;;;32.78;;
39454;SDS011;25155;41.890;23.446;2023-11-22T10:05:21;36.83;;;30.75;;
39454;SDS011;25155;41.890;23.446;2023-11-22T10:07:48;36.00;;;30.17;;
39454;SDS011;25155;41.890;23.446;2023-11-22T10:10:16;49.15;;;38.50;;
39454;SDS011;25155;41.890;23.446;2023-11-22T10:12:44;50.28;;;38.28;;
39454;SDS011;25155;41.890;23.446;2023-11-22T10:15:13;36.38;;;30.73;;
39454;SDS011;25155;41.890;23.446;2023-11-22T10:17:46;33.53;;;26.33;;
39454;SDS011;25155;41.890;23.446;2023-11-22T10:20:23;29.38;;;25.02;;
39454;SDS011;25155;41.890;23.446;2023-11-22T10:22:51;26.92;;;21.42;;
39454;SDS011;25155;41.890;23.446;2023-11-22T10:25:19;25.08;;;20.23;;
39454;SDS011;25155;41.890;23.446;2023-11-22T10:27:48;28.55;;;22.17;;
39454;SDS011;25155;41.890;23.446;2023-11-22T10:30:16;29.50;;;23.38;;
39454;SDS011;25155;41.890;23.446;2023-11-22T10:32:44;25.10;;;21.40;;
39454;SDS011;25155;41.890;23.446;2023-11-22T10:35:12;27.35;;;20.67;;
39454;SDS011;25155;41.890;23.446;2023-11-22T10:37:42;25.10;;;20.35;;
39454;SDS011;25155;41.890;23.446;2023-11-22T10:40:12;29.95;;;23.95;;
39454;SDS011;25155;41.890;23.446;2023-11-22T10:42:40;28.90;;;23.45;;
39454;SDS011;25155;41.890;23.446;2023-11-22T10:45:09;27.45;;;23.65;;
39454;SDS011;25155;41.890;23.446;2023-11-22T10:47:36;35.08;;;28.45;;
39454;SDS011;25155;41.890;23.446;2023-11-22T10:50:07;31.70;;;26.58;;
39454;SDS011;25155;41.890;23.446;2023-11-22T10:52:36;30.90;;;26.00;;
39454;SDS011;25155;41.890;23.446;2023-11-22T10:55:11;29.73;;;25.10;;
39454;SDS011;25155;41.890;23.446;2023-11-22T10:57:44;28.42;;;23.40;;
39454;SDS011;25155;41.890;23.446;2023-11-22T11:00:13;24.70;;;20.90;;
39454;SDS011;25155;41.890;23.446;2023-11-22T11:02:44;23.02;;;19.55;;
39454;SDS011;25155;41.890;23.446;2023-11-22T11:05:15;26.38;;;21.73;;
39454;SDS011;25155;41.890;23.446;2023-11-22T11:07:48;21.35;;;17.70;;
39454;SDS011;25155;41.890;23.446;2023-11-22T11:10:20;20.65;;;17.67;;
39454;SDS011;25155;41.890;23.446;2023-11-22T11:12:48;24.00;;;18.27;;
39454;SDS011;25155;41.890;23.446;2023-11-22T11:15:16;21.98;;;18.02;;
39454;SDS011;25155;41.890;23.446;2023-11-22T11:17:44;23.33;;;18.27;;
39454;SDS011;25155;41.890;23.446;2023-11-22T11:20:15;21.13;;;17.87;;
39454;SDS011;25155;41.890;23.446;2023-11-22T11:22:46;24.10;;;19.42;;
39454;SDS011;25155;41.890;23.446;2023-11-22T11:25:15;37.05;;;30.05;;
39454;SDS011;25155;41.890;23.446;2023-11-22T11:27:45;43.85;;;35.65;;
39454;SDS011;25155;41.890;23.446;2023-11-22T11:30:45;35.65;;;29.40;;
39454;SDS011;25155;41.890;23.446;2023-11-22T11:33:13;32.08;;;26.05;;
39454;SDS011;25155;41.890;23.446;2023-11-22T11:35:43;38.25;;;32.28;;
39454;SDS011;25155;41.890;23.446;2023-11-22T11:38:13;30.65;;;25.35;;
39454;SDS011;25155;41.890;23.446;2023-11-22T11:40:40;42.42;;;36.58;;
39454;SDS011;25155;41.890;23.446;2023-11-22T11:43:11;33.17;;;28.13;;
39454;SDS011;25155;41.890;23.446;2023-11-22T11:45:39;24.63;;;20.75;;
39454;SDS011;25155;41.890;23.446;2023-11-22T11:48:11;35.10;;;29.30;;
39454;SDS011;25155;41.890;23.446;2023-11-22T11:50:40;26.67;;;22.70;;
39454;SDS011;25155;41.890;23.446;2023-11-22T11:53:07;22.65;;;18.60;;
39454;SDS011;25155;41.890;23.446;2023-11-22T11:55:35;20.63;;;16.77;;
39454;SDS011;25155;41.890;23.446;2023-11-22T11:58:05;20.30;;;16.08;;
39454;SDS011;25155;41.890;23.446;2023-11-22T12:00:36;29.58;;;23.27;;
39454;SDS011;25155;41.890;23.446;2023-11-22T12:03:06;34.63;;;27.95;;
39454;SDS011;25155;41.890;23.446;2023-11-22T12:05:35;27.38;;;21.95;;
39454;SDS011;25155;41.890;23.446;2023-11-22T12:08:02;31.33;;;24.10;;
39454;SDS011;25155;41.890;23.446;2023-11-22T12:10:29;40.15;;;30.63;;
39454;SDS011;25155;41.890;23.446;2023-11-22T12:12:56;31.40;;;25.90;;
39454;SDS011;25155;41.890;23.446;2023-11-22T12:15:24;27.23;;;20.75;;
39454;SDS011;25155;41.890;23.446;2023-11-22T12:17:53;36.13;;;27.33;;
39454;SDS011;25155;41.890;23.446;2023-11-22T12:20:22;61.55;;;46.97;;
39454;SDS011;25155;41.890;23.446;2023-11-22T12:22:51;59.05;;;45.00;;
39454;SDS011;25155;41.890;23.446;2023-11-22T12:25:18;68.97;;;52.72;;
39454;SDS011;25155;41.890;23.446;2023-11-22T12:27:46;64.68;;;49.42;;
39454;SDS011;25155;41.890;23.446;2023-11-22T12:30:30;51.35;;;39.38;;
39454;SDS011;25155;41.890;23.446;2023-11-22T12:33:03;51.03;;;40.25;;
39454;SDS011;25155;41.890;23.446;2023-11-22T12:35:32;46.42;;;36.20;;
39454;SDS011;25155;41.890;23.446;2023-11-22T12:38:00;52.92;;;39.10;;
39454;SDS011;25155;41.890;23.446;2023-11-22T12:40:28;45.28;;;34.58;;
39454;SDS011;25155;41.890;23.446;2023-11-22T12:42:58;57.85;;;43.05;;
39454;SDS011;25155;41.890;23.446;2023-11-22T12:45:27;48.47;;;37.28;;
39454;SDS011;25155;41.890;23.446;2023-11-22T12:47:54;42.47;;;34.00;;
39454;SDS011;25155;41.890;23.446;2023-11-22T12:50:34;57.70;;;44.63;;
39454;SDS011;25155;41.890;23.446;2023-11-22T12:53:08;61.63;;;46.50;;
39454;SDS011;25155;41.890;23.446;2023-11-22T12:55:37;53.80;;;41.65;;
39454;SDS011;25155;41.890;23.446;2023-11-22T12:58:08;57.33;;;44.35;;
39454;SDS011;25155;41.890;23.446;2023-11-22T13:00:35;48.35;;;36.72;;
39454;SDS011;25155;41.890;23.446;2023-11-22T13:03:04;40.03;;;31.15;;
39454;SDS011;25155;41.890;23.446;2023-11-22T13:05:34;39.25;;;31.40;;
39454;SDS011;25155;41.890;23.446;2023-11-22T13:08:01;45.22;;;35.30;;
39454;SDS011;25155;41.890;23.446;2023-11-22T13:10:29;33.67;;;26.35;;
39454;SDS011;25155;41.890;23.446;2023-11-22T13:12:56;27.20;;;21.60;;
39454;SDS011;25155;41.890;23.446;2023-11-22T13:15:23;25.63;;;19.45;;
39454;SDS011;25155;41.890;23.446;2023-11-22T13:17:51;24.95;;;19.05;;
39454;SDS011;25155;41.890;23.446;2023-11-22T13:20:21;20.80;;;16.75;;
39454;SDS011;25155;41.890;23.446;2023-11-22T13:22:52;16.38;;;13.68;;
39454;SDS011;25155;41.890;23.446;2023-11-22T13:25:19;17.20;;;13.23;;
39454;SDS011;25155;41.890;23.446;2023-11-22T13:27:46;18.85;;;14.98;;
39454;SDS011;25155;41.890;23.446;2023-11-22T13:30:15;19.58;;;14.80;;
39454;SDS011;25155;41.890;23.446;2023-11-22T13:32:44;15.27;;;12.95;;
39454;SDS011;25155;41.890;23.446;2023-11-22T13:35:12;12.10;;;10.10;;
39454;SDS011;25155;41.890;23.446;2023-11-22T13:37:42;20.10;;;15.20;;
39454;SDS011;25155;41.890;23.446;2023-11-22T13:40:13;20.48;;;16.25;;
39454;SDS011;25155;41.890;23.446;2023-11-22T13:42:42;18.70;;;14.90;;
39454;SDS011;25155;41.890;23.446;2023-11-22T13:45:10;15.43;;;12.95;;
39454;SDS011;25155;41.890;23.446;2023-11-22T13:47:44;15.32;;;12.02;;
39454;SDS011;25155;41.890;23.446;2023-11-22T13:52:44;18.02;;;14.27;;
39454;SDS011;25155;41.890;23.446;2023-11-22T13:55:13;14.50;;;10.95;;
39454;SDS011;25155;41.890;23.446;2023-11-22T13:57:43;11.50;;;8.82;;
39454;SDS011;25155;41.890;23.446;2023-11-22T14:00:10;9.77;;;7.68;;
39454;SDS011;25155;41.890;23.446;2023-11-22T14:02:44;13.07;;;9.75;;
39454;SDS011;25155;41.890;23.446;2023-11-22T14:05:11;12.77;;;9.07;;
39454;SDS011;25155;41.890;23.446;2023-11-22T14:07:38;11.25;;;8.68;;
39454;SDS011;25155;41.890;23.446;2023-11-22T14:10:06;9.68;;;7.47;;
39454;SDS011;25155;41.890;23.446;2023-11-22T14:12:37;7.03;;;5.63;;
39454;SDS011;25155;41.890;23.446;2023-11-22T14:15:05;7.68;;;5.78;;
39454;SDS011;25155;41.890;23.446;2023-11-22T14:17:32;6.13;;;4.60;;
39454;SDS011;25155;41.890;23.446;2023-11-22T14:20:00;6.70;;;5.47;;
39454;SDS011;25155;41.890;23.446;2023-11-22T14:22:28;7.07;;;5.47;;
39454;SDS011;25155;41.890;23.446;2023-11-22T14:24:56;6.80;;;4.75;;